Time;durP1;ratioP1;P1;durP2;ratioP2;P2;SDS_P1;SDS_P2;PMS_P1;PMS_P2;Temp;Humidity;BMP_temperature;BMP_pressure;BME280_temperature;BME280_humidity;BME280_pressure;Samples;Min_cycle;Max_cycle;Signal;HPM_P1;HPM_P2
2023/04/05 00:01:14;;;;;;;;;;;5.10;99.90;;;;;;4997142;28;19979;-61
2023/04/05 00:03:41;;;;;;;;;;;5.20;99.90;;;;;;4997132;28;20011;-62
2023/04/05 00:06:07;;;;;;;;;;;5.20;99.90;;;;;;4997148;28;20437;-62
2023/04/05 00:08:32;;;;;;;;;;;5.20;99.90;;;;;;4997054;28;20017;-64
2023/04/05 00:10:58;;;;;;;;;;;5.20;99.90;;;;;;4996655;28;20354;-63
2023/04/05 00:13:24;;;;;;;;;;;5.10;99.90;;;;;;4997088;28;20010;-61
2023/04/05 00:15:50;;;;;;;;;;;4.90;99.90;;;;;;4997000;28;19979;-64
2023/04/05 00:18:22;;;;;;;;;;;4.90;99.90;;;;;;4996788;28;20051;-61
2023/04/05 00:20:51;;;;;;;;;;;5.00;99.90;;;;;;4996867;28;20348;-62
2023/04/05 00:23:16;;;;;;;;;;;5.00;99.90;;;;;;4996823;28;20040;-64
2023/04/05 00:25:42;;;;;;;;;;;5.00;99.90;;;;;;4996483;28;19979;-62
2023/04/05 00:28:08;;;;;;;;;;;4.90;99.90;;;;;;4996927;28;20007;-63
2023/04/05 00:30:34;;;;;;;;;;;4.90;99.90;;;;;;4996677;28;20002;-61
2023/04/05 00:32:59;;;;;;;;;;;4.90;99.90;;;;;;4996591;28;20465;-62
2023/04/05 00:35:28;;;;;;;;;;;5.00;99.90;;;;;;4996686;28;19978;-62
2023/04/05 00:37:54;;;;;;;;;;;4.90;99.90;;;;;;4996887;28;20026;-62
2023/04/05 00:40:19;;;;;;;;;;;4.80;99.90;;;;;;4996201;28;20044;-61
2023/04/05 00:42:45;;;;;;;;;;;4.70;99.90;;;;;;4996480;28;20074;-62
2023/04/05 00:45:12;;;;;;;;;;;4.70;99.90;;;;;;4996495;28;19986;-62
2023/04/05 00:47:37;;;;;;;;;;;4.60;99.90;;;;;;4996245;28;20009;-63
2023/04/05 00:50:04;;;;;;;;;;;4.70;99.90;;;;;;4996345;28;20420;-62
2023/04/05 00:52:31;;;;;;;;;;;4.90;99.90;;;;;;4995765;28;20445;-62
2023/04/05 00:54:57;;;;;;;;;;;5.00;99.90;;;;;;4995942;28;20441;-63
2023/04/05 00:57:23;;;;;;;;;;;5.10;99.90;;;;;;4996459;28;20151;-61
2023/04/05 00:59:49;;;;;;;;;;;5.10;99.90;;;;;;4996169;28;20392;-62
2023/04/05 01:02:20;;;;;;;;;;;5.00;99.90;;;;;;4996320;28;19997;-63
2023/04/05 01:04:50;;;;;;;;;;;5.00;99.90;;;;;;4996033;28;19995;-63
2023/04/05 01:07:39;;;;;;;;;;;5.00;99.90;;;;;;4996069;28;20002;-64
2023/04/05 01:10:08;;;;;;;;;;;5.00;99.90;;;;;;4995772;28;19982;-61
2023/04/05 01:12:35;;;;;;;;;;;5.00;99.90;;;;;;4995862;28;20081;-62
2023/04/05 01:15:00;;;;;;;;;;;5.10;99.90;;;;;;4995745;28;20434;-63
2023/04/05 01:17:27;;;;;;;;;;;5.10;99.90;;;;;;4996163;28;19994;-61
2023/04/05 01:19:57;;;;;;;;;;;5.00;99.90;;;;;;4995810;28;20440;-62
2023/04/05 01:22:30;;;;;;;;;;;5.00;99.90;;;;;;4995696;28;20077;-61
2023/04/05 01:25:18;;;;;;;;;;;5.00;99.90;;;;;;4995534;28;19986;-61
2023/04/05 01:27:58;;;;;;;;;;;5.00;99.90;;;;;;4995513;28;20096;-63
2023/04/05 01:30:30;;;;;;;;;;;5.00;99.90;;;;;;4995575;28;19989;-63
2023/04/05 01:33:15;;;;;;;;;;;5.10;99.90;;;;;;4995485;28;19979;-62
2023/04/05 01:36:04;;;;;;;;;;;5.00;99.90;;;;;;4995766;28;19989;-63
2023/04/05 01:38:30;;;;;;;;;;;4.90;99.90;;;;;;4994627;28;19983;-62
2023/04/05 01:40:56;;;;;;;;;;;4.70;99.90;;;;;;4995403;28;19979;-63
2023/04/05 01:43:22;;;;;;;;;;;4.80;99.90;;;;;;4995323;28;20463;-62
2023/04/05 01:45:47;;;;;;;;;;;4.90;99.90;;;;;;4995306;28;20047;-62
2023/04/05 01:48:13;;;;;;;;;;;5.00;99.90;;;;;;4995336;28;20014;-63
2023/04/05 01:50:39;;;;;;;;;;;5.00;99.90;;;;;;4995226;28;19979;-63
2023/04/05 01:53:06;;;;;;;;;;;5.00;99.90;;;;;;4994904;28;20429;-63
2023/04/05 01:55:31;;;;;;;;;;;5.00;99.90;;;;;;4995125;28;20354;-62
2023/04/05 01:57:57;;;;;;;;;;;5.00;99.90;;;;;;4995211;28;19983;-61
2023/04/05 02:00:22;;;;;;;;;;;5.00;99.90;;;;;;4994946;28;19983;-62
2023/04/05 02:02:48;;;;;;;;;;;4.90;99.90;;;;;;4994304;28;19986;-63
2023/04/05 02:05:14;;;;;;;;;;;4.80;99.90;;;;;;4994798;28;20353;-63
2023/04/05 02:07:39;;;;;;;;;;;4.80;99.90;;;;;;4994822;28;20039;-62
2023/04/05 02:10:05;;;;;;;;;;;4.80;99.90;;;;;;4994850;28;20110;-62
2023/04/05 02:12:31;;;;;;;;;;;4.80;99.90;;;;;;4994717;28;20014;-63
2023/04/05 02:14:57;;;;;;;;;;;4.90;99.90;;;;;;4994733;28;19989;-61
2023/04/05 02:17:23;;;;;;;;;;;5.00;99.90;;;;;;4995057;28;19983;-62
2023/04/05 02:19:51;;;;;;;;;;;5.00;99.90;;;;;;4994680;28;20356;-63
2023/04/05 02:22:17;;;;;;;;;;;5.00;99.90;;;;;;4994426;28;20033;-61
2023/04/05 02:24:43;;;;;;;;;;;5.00;99.90;;;;;;4994653;28;19989;-63
2023/04/05 02:27:09;;;;;;;;;;;5.00;99.90;;;;;;4994837;28;20006;-63
2023/04/05 02:29:35;;;;;;;;;;;5.00;99.90;;;;;;4994553;28;19983;-62
2023/04/05 02:32:00;;;;;;;;;;;4.90;99.90;;;;;;4994452;28;19979;-63
2023/04/05 02:34:26;;;;;;;;;;;4.90;99.90;;;;;;4994521;28;20476;-64
2023/04/05 02:36:52;;;;;;;;;;;5.00;99.90;;;;;;4994371;28;19986;-62
2023/04/05 02:39:18;;;;;;;;;;;4.90;99.90;;;;;;4994372;28;20077;-61
2023/04/05 02:41:44;;;;;;;;;;;4.90;99.90;;;;;;4994718;28;20065;-63
2023/04/05 02:44:10;;;;;;;;;;;5.00;99.90;;;;;;4994365;28;19982;-62
2023/04/05 02:46:35;;;;;;;;;;;5.00;99.90;;;;;;4994190;28;19985;-63
2023/04/05 02:49:01;;;;;;;;;;;5.00;99.90;;;;;;4994654;28;20004;-62
2023/04/05 02:51:26;;;;;;;;;;;4.90;99.90;;;;;;4994150;28;20026;-64
2023/04/05 02:53:52;;;;;;;;;;;4.90;99.90;;;;;;4994199;28;19978;-62
2023/04/05 02:56:18;;;;;;;;;;;4.90;99.90;;;;;;4994367;28;19986;-62
2023/04/05 02:58:44;;;;;;;;;;;4.90;99.90;;;;;;4994255;28;19990;-62
2023/04/05 03:01:10;;;;;;;;;;;4.90;99.90;;;;;;4994898;28;20004;-62
2023/04/05 03:03:36;;;;;;;;;;;5.00;99.90;;;;;;4994150;28;20081;-62
2023/04/05 03:06:08;;;;;;;;;;;4.90;99.90;;;;;;4994290;28;19990;-63
2023/04/05 03:08:37;;;;;;;;;;;4.80;99.90;;;;;;4994299;28;20010;-61
2023/04/05 03:11:04;;;;;;;;;;;4.80;99.90;;;;;;4993992;28;20353;-62
2023/04/05 03:13:29;;;;;;;;;;;4.70;99.90;;;;;;4994245;28;20069;-63
2023/04/05 03:15:55;;;;;;;;;;;4.80;99.90;;;;;;4997442;28;20026;-63
2023/04/05 03:18:20;;;;;;;;;;;4.90;99.90;;;;;;4998334;28;19982;-62
2023/04/05 03:20:49;;;;;;;;;;;4.90;99.90;;;;;;4997880;28;20009;-63
2023/04/05 03:23:15;;;;;;;;;;;5.00;99.90;;;;;;4997997;28;20002;-61
2023/04/05 03:25:40;;;;;;;;;;;5.00;99.90;;;;;;4998136;28;19982;-62
2023/04/05 03:28:07;;;;;;;;;;;5.00;99.90;;;;;;4997938;28;20121;-62
2023/04/05 03:30:33;;;;;;;;;;;4.90;99.90;;;;;;4997826;28;19982;-63
2023/04/05 03:33:02;;;;;;;;;;;4.90;99.90;;;;;;4997670;28;19979;-61
2023/04/05 03:35:28;;;;;;;;;;;4.90;99.90;;;;;;4997539;28;20338;-61
2023/04/05 03:37:54;;;;;;;;;;;4.90;99.90;;;;;;4997762;28;19983;-61
2023/04/05 03:40:19;;;;;;;;;;;4.80;99.90;;;;;;4997763;28;19982;-61
2023/04/05 03:42:45;;;;;;;;;;;4.90;99.90;;;;;;4997535;28;20323;-63
2023/04/05 03:45:11;;;;;;;;;;;4.90;99.90;;;;;;4997832;28;20036;-62
2023/04/05 03:47:36;;;;;;;;;;;4.90;99.90;;;;;;4997397;28;20013;-62
2023/04/05 03:50:03;;;;;;;;;;;4.90;99.90;;;;;;4997576;28;20018;-61
2023/04/05 03:52:28;;;;;;;;;;;4.90;99.90;;;;;;4997722;28;19983;-62
2023/04/05 03:54:54;;;;;;;;;;;4.90;99.90;;;;;;4997292;28;20025;-61
2023/04/05 03:57:19;;;;;;;;;;;4.80;99.90;;;;;;4997483;28;20085;-62
2023/04/05 03:59:45;;;;;;;;;;;4.70;99.90;;;;;;4997380;28;20069;-63
2023/04/05 04:02:10;;;;;;;;;;;4.60;99.90;;;;;;4997238;28;19978;-62
2023/04/05 04:04:36;;;;;;;;;;;4.40;99.90;;;;;;4997153;28;20008;-63
2023/04/05 04:07:02;;;;;;;;;;;4.40;99.90;;;;;;4997093;28;20141;-62
2023/04/05 04:09:28;;;;;;;;;;;4.30;99.90;;;;;;4997182;28;19985;-62
2023/04/05 04:11:55;;;;;;;;;;;4.30;99.90;;;;;;4996980;28;20116;-62
2023/04/05 04:14:21;;;;;;;;;;;4.30;99.90;;;;;;4996992;28;20030;-63
2023/04/05 04:16:47;;;;;;;;;;;4.20;99.90;;;;;;4997010;28;20356;-61
2023/04/05 04:19:12;;;;;;;;;;;4.20;99.90;;;;;;4996719;28;20073;-63
2023/04/05 04:21:38;;;;;;;;;;;4.20;99.90;;;;;;4996894;28;20457;-62
2023/04/05 04:24:04;;;;;;;;;;;4.10;99.90;;;;;;4997144;28;20488;-63
2023/04/05 04:26:36;;;;;;;;;;;4.10;99.90;;;;;;4996014;28;20070;-62
2023/04/05 04:29:02;;;;;;;;;;;4.30;99.90;;;;;;4997079;28;20377;-62
2023/04/05 04:31:28;;;;;;;;;;;4.40;99.90;;;;;;4996527;28;19990;-62
2023/04/05 04:33:54;;;;;;;;;;;4.50;99.90;;;;;;4996555;28;19979;-61
2023/04/05 04:36:35;;;;;;;;;;;4.50;99.90;;;;;;4996623;28;20151;-62
2023/04/05 04:39:04;;;;;;;;;;;4.40;99.90;;;;;;4996845;28;19982;-61
2023/04/05 04:41:34;;;;;;;;;;;4.30;99.90;;;;;;4996691;28;20025;-62
2023/04/05 04:44:04;;;;;;;;;;;4.50;99.90;;;;;;4996789;28;20349;-63
2023/04/05 04:46:33;;;;;;;;;;;4.40;99.90;;;;;;4996181;28;20029;-62
2023/04/05 04:49:04;;;;;;;;;;;4.30;99.90;;;;;;4996339;28;20483;-63
2023/04/05 04:51:31;;;;;;;;;;;4.50;99.90;;;;;;4996359;28;20445;-62
2023/04/05 04:53:56;;;;;;;;;;;4.60;99.90;;;;;;4996265;28;20456;-62
2023/04/05 04:56:22;;;;;;;;;;;4.70;99.90;;;;;;4996180;28;19983;-62
2023/04/05 04:58:47;;;;;;;;;;;4.70;99.90;;;;;;4996117;28;20458;-62
2023/04/05 05:01:13;;;;;;;;;;;4.60;99.90;;;;;;4995863;28;20511;-63
2023/04/05 05:03:38;;;;;;;;;;;4.40;99.90;;;;;;4995812;28;20503;-62
2023/04/05 05:06:04;;;;;;;;;;;4.30;99.90;;;;;;4995220;28;20073;-63
2023/04/05 05:08:30;;;;;;;;;;;4.30;99.90;;;;;;4974839;28;20054;-63
2023/04/05 05:10:55;;;;;;;;;;;4.20;99.90;;;;;;4975313;28;19983;-62
2023/04/05 05:13:21;;;;;;;;;;;4.10;99.90;;;;;;4984711;28;19991;-62
2023/04/05 05:15:47;;;;;;;;;;;4.30;99.90;;;;;;4994272;28;19991;-61
2023/04/05 05:18:13;;;;;;;;;;;4.50;99.90;;;;;;4994959;28;19987;-61
2023/04/05 05:20:38;;;;;;;;;;;4.60;99.90;;;;;;4993573;28;19993;-62
2023/04/05 05:23:04;;;;;;;;;;;4.70;99.90;;;;;;4993075;28;19982;-63
2023/04/05 05:25:30;;;;;;;;;;;4.80;99.90;;;;;;4993341;28;19986;-61
2023/04/05 05:27:56;;;;;;;;;;;4.90;99.90;;;;;;4995560;28;20469;-61
2023/04/05 05:30:21;;;;;;;;;;;5.00;98.20;;;;;;4995566;28;19986;-61
2023/04/05 05:32:47;;;;;;;;;;;5.10;99.90;;;;;;4993412;28;20480;-60
2023/04/05 05:35:13;;;;;;;;;;;5.10;97.20;;;;;;4995359;28;19994;-61
2023/04/05 05:37:38;;;;;;;;;;;5.20;95.80;;;;;;4994528;28;19979;-63
2023/04/05 05:40:04;;;;;;;;;;;5.10;95.20;;;;;;4989615;28;20365;-63
2023/04/05 05:42:31;;;;;;;;;;;5.20;97.40;;;;;;4991709;28;19987;-60
2023/04/05 05:44:57;;;;;;;;;;;5.20;97.30;;;;;;4994273;28;19983;-61
2023/04/05 05:47:23;;;;;;;;;;;5.20;92.40;;;;;;4995090;28;20009;-62
2023/04/05 05:49:48;;;;;;;;;;;5.20;95.50;;;;;;4983843;28;20401;-62
2023/04/05 05:52:14;;;;;;;;;;;5.30;90.20;;;;;;4984563;28;20073;-61
2023/04/05 05:54:40;;;;;;;;;;;5.20;85.40;;;;;;4975521;28;19979;-62
2023/04/05 05:57:05;;;;;;;;;;;5.30;90.00;;;;;;4975383;28;19985;-61
2023/04/05 05:59:31;;;;;;;;;;;5.40;90.20;;;;;;4975261;28;19980;-62
2023/04/05 06:01:56;;;;;;;;;;;5.50;91.90;;;;;;4975466;28;20518;-61
2023/04/05 06:04:22;;;;;;;;;;;5.50;94.80;;;;;;4975369;28;20361;-61
2023/04/05 06:06:47;;;;;;;;;;;5.50;91.60;;;;;;4975578;28;20078;-60
2023/04/05 06:09:14;;;;;;;;;;;5.50;86.70;;;;;;4975378;28;19983;-62
2023/04/05 06:11:40;;;;;;;;;;;5.60;90.00;;;;;;4977016;28;20064;-63
2023/04/05 06:14:06;;;;;;;;;;;5.70;87.10;;;;;;4986926;28;19982;-62
2023/04/05 06:16:31;;;;;;;;;;;5.70;84.30;;;;;;4982463;28;20362;-62
2023/04/05 06:18:57;;;;;;;;;;;5.70;81.10;;;;;;4992196;28;19991;-63
2023/04/05 06:21:23;;;;;;;;;;;5.70;90.90;;;;;;4989168;28;19987;-62
2023/04/05 06:23:48;;;;;;;;;;;5.80;76.20;;;;;;4993785;28;20069;-63
2023/04/05 06:26:22;;;;;;;;;;;6.00;78.50;;;;;;4994631;28;21674;-61
2023/04/05 06:28:47;;;;;;;;;;;6.20;78.00;;;;;;4984152;28;20007;-61
2023/04/05 06:31:16;;;;;;;;;;;6.30;76.40;;;;;;4983973;28;19997;-62
2023/04/05 06:33:43;;;;;;;;;;;6.40;68.70;;;;;;4986478;28;20033;-63
2023/04/05 06:36:08;;;;;;;;;;;6.70;69.00;;;;;;4984667;28;19983;-64
2023/04/05 06:38:35;;;;;;;;;;;7.20;71.80;;;;;;4981335;28;19991;-62
2023/04/05 06:41:01;;;;;;;;;;;7.40;59.30;;;;;;4981439;28;20065;-62
2023/04/05 06:43:26;;;;;;;;;;;7.40;59.70;;;;;;4984711;28;19983;-62
2023/04/05 06:45:54;;;;;;;;;;;7.50;64.00;;;;;;4977834;28;20386;-63
2023/04/05 06:48:20;;;;;;;;;;;7.40;68.50;;;;;;4984475;28;20002;-61
2023/04/05 06:50:46;;;;;;;;;;;7.20;68.40;;;;;;4988601;28;20033;-64
2023/04/05 06:53:14;;;;;;;;;;;6.90;65.60;;;;;;4988454;28;19983;-63
2023/04/05 06:55:41;;;;;;;;;;;6.50;67.70;;;;;;4984568;28;19987;-63
2023/04/05 06:58:06;;;;;;;;;;;6.30;69.60;;;;;;4993217;28;19986;-60
2023/04/05 07:00:32;;;;;;;;;;;6.30;70.10;;;;;;4990742;28;20001;-61
2023/04/05 07:02:58;;;;;;;;;;;6.20;68.20;;;;;;4991015;28;20044;-65
2023/04/05 07:05:23;;;;;;;;;;;6.30;68.00;;;;;;4989765;28;19999;-63
2023/04/05 07:07:49;;;;;;;;;;;6.40;66.60;;;;;;4991862;28;20006;-64
2023/04/05 07:10:15;;;;;;;;;;;6.60;66.60;;;;;;4991554;28;20013;-65
2023/04/05 07:12:40;;;;;;;;;;;6.60;68.00;;;;;;4991454;28;20073;-63
2023/04/05 07:15:06;;;;;;;;;;;6.80;64.20;;;;;;4991778;28;20441;-64
2023/04/05 07:17:32;;;;;;;;;;;7.10;62.20;;;;;;4991926;28;19989;-63
2023/04/05 07:19:57;;;;;;;;;;;7.60;63.10;;;;;;4991824;28;19983;-62
2023/04/05 07:22:23;;;;;;;;;;;8.00;62.80;;;;;;4992543;28;19978;-61
2023/04/05 07:24:49;;;;;;;;;;;8.00;57.30;;;;;;4984824;28;19987;-66
2023/04/05 07:27:14;;;;;;;;;;;8.50;60.80;;;;;;4971034;28;20599;-63
2023/04/05 07:29:42;;;;;;;;;;;8.80;58.70;;;;;;4968515;28;19983;-63
2023/04/05 07:32:08;;;;;;;;;;;9.30;56.20;;;;;;4969729;28;20033;-63
2023/04/05 07:34:34;;;;;;;;;;;10.20;52.70;;;;;;4970263;28;19991;-64
2023/04/05 07:37:00;;;;;;;;;;;10.80;53.10;;;;;;4971664;28;19980;-62
2023/04/05 07:39:25;;;;;;;;;;;11.00;50.80;;;;;;4972369;28;20358;-62
2023/04/05 07:41:51;;;;;;;;;;;11.20;51.50;;;;;;4971575;28;20034;-63
2023/04/05 07:44:17;;;;;;;;;;;11.10;50.40;;;;;;4973178;28;20022;-62
2023/04/05 07:46:45;;;;;;;;;;;11.00;48.80;;;;;;4971152;28;20042;-63
2023/04/05 07:49:11;;;;;;;;;;;10.90;48.50;;;;;;4987699;28;20045;-62
2023/04/05 07:51:37;;;;;;;;;;;11.10;51.00;;;;;;4982446;28;19991;-63
2023/04/05 07:54:04;;;;;;;;;;;11.80;49.20;;;;;;4969159;28;19991;-64
2023/04/05 07:56:30;;;;;;;;;;;12.60;47.60;;;;;;4967189;28;19982;-61
2023/04/05 07:58:56;;;;;;;;;;;12.40;47.00;;;;;;4969704;28;20030;-61
2023/04/05 08:01:26;;;;;;;;;;;12.10;47.90;;;;;;4971043;28;20409;-62
2023/04/05 08:03:52;;;;;;;;;;;11.50;48.30;;;;;;4974046;28;20650;-62
2023/04/05 08:06:18;;;;;;;;;;;11.00;49.60;;;;;;4974437;28;20188;-62
2023/04/05 08:08:44;;;;;;;;;;;10.40;47.20;;;;;;4992580;28;20145;-63
2023/04/05 08:11:09;;;;;;;;;;;9.90;49.50;;;;;;4992977;28;20011;-62
2023/04/05 08:13:37;;;;;;;;;;;9.60;51.10;;;;;;4992353;28;19989;-61
2023/04/05 08:16:03;;;;;;;;;;;9.10;52.50;;;;;;4993429;28;20064;-61
2023/04/05 08:18:28;;;;;;;;;;;8.90;52.80;;;;;;4994661;28;20033;-61
2023/04/05 08:20:55;;;;;;;;;;;8.80;51.60;;;;;;4977500;28;19994;-62
2023/04/05 08:23:20;;;;;;;;;;;8.80;53.80;;;;;;4974330;28;19979;-63
2023/04/05 08:25:46;;;;;;;;;;;8.90;54.80;;;;;;4981863;28;20428;-60
2023/04/05 08:28:12;;;;;;;;;;;8.80;56.10;;;;;;4986400;28;20006;-64
2023/04/05 08:30:38;;;;;;;;;;;8.80;53.20;;;;;;4990305;28;19987;-62
2023/04/05 08:33:11;;;;;;;;;;;9.00;53.40;;;;;;4983389;28;20515;-65
2023/04/05 08:35:37;;;;;;;;;;;9.30;54.60;;;;;;4975575;28;19994;-64
2023/04/05 08:38:03;;;;;;;;;;;9.60;53.30;;;;;;4991574;28;20421;-63
2023/04/05 08:40:34;;;;;;;;;;;10.10;53.90;;;;;;4990328;28;20013;-63
2023/04/05 08:43:08;;;;;;;;;;;10.20;49.50;;;;;;4983239;28;20109;-65
2023/04/05 08:45:43;;;;;;;;;;;10.40;51.10;;;;;;4981220;28;20274;-64
2023/04/05 08:48:09;;;;;;;;;;;10.60;49.10;;;;;;4990065;28;20092;-64
2023/04/05 08:50:34;;;;;;;;;;;10.70;49.10;;;;;;4988446;28;20033;-63
2023/04/05 08:53:00;;;;;;;;;;;10.30;48.40;;;;;;4989492;28;20149;-63
2023/04/05 08:55:28;;;;;;;;;;;10.10;48.90;;;;;;4979254;28;20408;-65
2023/04/05 08:57:57;;;;;;;;;;;9.70;50.00;;;;;;4984861;28;19986;-63
2023/04/05 09:00:28;;;;;;;;;;;9.50;49.40;;;;;;4986289;28;20082;-62
2023/04/05 09:02:56;;;;;;;;;;;9.40;50.40;;;;;;4992982;28;19979;-63
2023/04/05 09:05:23;;;;;;;;;;;9.40;49.60;;;;;;4988337;28;19998;-67
2023/04/05 09:07:49;;;;;;;;;;;9.30;47.70;;;;;;4982740;28;20457;-63
2023/04/05 09:10:22;;;;;;;;;;;9.10;48.90;;;;;;4989477;28;19983;-65
2023/04/05 09:12:51;;;;;;;;;;;8.90;48.30;;;;;;4989671;28;20491;-63
2023/04/05 09:15:17;;;;;;;;;;;8.70;49.60;;;;;;4990537;28;20081;-65
2023/04/05 09:17:42;;;;;;;;;;;8.80;51.00;;;;;;4991217;28;19986;-66
2023/04/05 09:20:08;;;;;;;;;;;8.90;49.80;;;;;;4988685;28;20085;-63
2023/04/05 09:22:46;;;;;;;;;;;8.90;52.70;;;;;;4985309;28;19994;-62
2023/04/05 09:25:32;;;;;;;;;;;9.10;49.40;;;;;;4985459;28;20078;-63
2023/04/05 09:27:58;;;;;;;;;;;8.70;50.20;;;;;;4987575;28;20006;-65
2023/04/05 09:30:30;;;;;;;;;;;8.20;51.10;;;;;;4983774;28;19987;-62
2023/04/05 09:32:57;;;;;;;;;;;8.20;53.80;;;;;;4989487;28;19987;-62
2023/04/05 09:35:24;;;;;;;;;;;8.40;52.20;;;;;;4989250;28;19987;-63
2023/04/05 09:38:19;;;;;;;;;;;;;;;;;;;;;
2023/04/05 09:40:52;;;;;;;;;;;8.20;53.60;;;;;;4978590;28;20417;-65
2023/04/05 09:43:37;;;;;;;;;;;7.90;53.30;;;;;;4980903;28;20081;-64
2023/04/05 09:46:02;;;;;;;;;;;8.00;53.30;;;;;;4986498;28;20401;-62
2023/04/05 09:48:46;;;;;;;;;;;8.00;52.30;;;;;;4988500;28;20030;-63
2023/04/05 09:51:15;;;;;;;;;;;8.30;51.90;;;;;;4981357;28;19986;-63
2023/04/05 09:53:57;;;;;;;;;;;8.50;51.90;;;;;;4983818;28;20329;-66
2023/04/05 09:56:23;;;;;;;;;;;8.70;53.00;;;;;;4979675;28;20353;-64
2023/04/05 09:58:52;;;;;;;;;;;8.80;51.40;;;;;;4988480;28;19987;-64
2023/04/05 10:01:29;;;;;;;;;;;9.00;50.30;;;;;;4985955;28;20136;-63
2023/04/05 10:03:56;;;;;;;;;;;9.10;51.60;;;;;;4982969;28;19999;-63
2023/04/05 10:06:22;;;;;;;;;;;9.20;53.20;;;;;;4984665;28;19989;-66
2023/04/05 10:08:48;;;;;;;;;;;9.30;53.60;;;;;;4980866;28;20003;-65
2023/04/05 10:11:17;;;;;;;;;;;9.40;54.80;;;;;;4985304;28;20437;-63
2023/04/05 10:13:43;;;;;;;;;;;9.40;51.50;;;;;;4989325;28;20400;-62
2023/04/05 10:16:10;;;;;;;;;;;9.10;49.50;;;;;;4980920;28;19983;-63
2023/04/05 10:18:42;;;;;;;;;;;9.20;49.00;;;;;;4992319;28;20072;-63
2023/04/05 10:21:10;;;;;;;;;;;9.20;49.30;;;;;;4993360;28;20464;-66
2023/04/05 10:23:36;;;;;;;;;;;9.30;49.40;;;;;;4992558;28;20025;-65
2023/04/05 10:26:24;;;;;;;;;;;9.20;49.90;;;;;;4989860;28;20376;-64
2023/04/05 10:28:55;;;;;;;;;;;9.10;50.10;;;;;;4986766;28;20457;-64
2023/04/05 10:31:25;;;;;;;;;;;8.80;48.90;;;;;;4982662;28;20500;-65
2023/04/05 10:34:03;;;;;;;;;;;8.60;50.00;;;;;;4983152;28;20078;-63
2023/04/05 10:36:36;;;;;;;;;;;8.30;49.60;;;;;;4983540;28;20046;-61
2023/04/05 10:39:03;;;;;;;;;;;8.30;49.70;;;;;;4990398;28;19982;-61
2023/04/05 10:41:45;;;;;;;;;;;8.40;50.40;;;;;;4990983;28;20090;-62
2023/04/05 10:44:11;;;;;;;;;;;8.60;48.40;;;;;;4982041;28;19982;-64
2023/04/05 10:46:39;;;;;;;;;;;8.70;51.20;;;;;;4984318;28;19986;-62
2023/04/05 10:49:23;;;;;;;;;;;8.90;51.20;;;;;;4989000;28;20013;-63
2023/04/05 10:51:49;;;;;;;;;;;9.10;51.00;;;;;;4986172;28;20070;-61
2023/04/05 10:54:16;;;;;;;;;;;9.20;49.50;;;;;;4988253;28;19979;-63
2023/04/05 10:56:42;;;;;;;;;;;9.20;47.70;;;;;;4986429;28;20006;-60
2023/04/05 10:59:08;;;;;;;;;;;9.30;49.00;;;;;;4984209;28;20009;-64
2023/04/05 11:01:34;;;;;;;;;;;9.00;48.60;;;;;;4987421;28;20452;-63
2023/04/05 11:04:10;;;;;;;;;;;8.80;46.20;;;;;;4988922;28;20034;-63
2023/04/05 11:06:36;;;;;;;;;;;8.80;48.10;;;;;;4975073;28;20009;-61
2023/04/05 11:09:14;;;;;;;;;;;8.80;46.40;;;;;;4979798;28;20007;-62
2023/04/05 11:11:43;;;;;;;;;;;8.70;46.30;;;;;;4986334;28;20011;-62
2023/04/05 11:14:19;;;;;;;;;;;8.90;48.60;;;;;;4987820;28;19987;-64
2023/04/05 11:16:48;;;;;;;;;;;9.10;48.00;;;;;;4978997;28;20058;-63
2023/04/05 11:19:17;;;;;;;;;;;9.20;46.90;;;;;;4986940;28;20426;-63
2023/04/05 11:21:47;;;;;;;;;;;9.20;47.30;;;;;;4984541;28;19983;-61
2023/04/05 11:24:14;;;;;;;;;;;9.10;50.40;;;;;;4983997;28;19987;-62
2023/04/05 11:26:43;;;;;;;;;;;9.20;48.30;;;;;;4986855;28;20350;-62
2023/04/05 11:29:10;;;;;;;;;;;9.30;48.90;;;;;;4986598;28;20003;-62
2023/04/05 11:31:35;;;;;;;;;;;9.20;49.70;;;;;;4985800;28;19990;-61
2023/04/05 11:34:11;;;;;;;;;;;9.00;46.60;;;;;;4989391;28;20365;-61
2023/04/05 11:36:46;;;;;;;;;;;8.80;48.80;;;;;;4990598;28;20015;-62
2023/04/05 11:39:18;;;;;;;;;;;8.80;47.90;;;;;;4993915;28;20001;-61
2023/04/05 11:41:52;;;;;;;;;;;8.70;48.70;;;;;;4992307;28;19990;-61
2023/04/05 11:44:18;;;;;;;;;;;9.00;47.90;;;;;;4992351;28;20039;-61
2023/04/05 11:47:07;;;;;;;;;;;8.80;46.60;;;;;;4992112;28;20018;-61
2023/04/05 11:49:34;;;;;;;;;;;8.60;47.30;;;;;;4989863;28;20018;-62
2023/04/05 11:52:09;;;;;;;;;;;8.60;47.30;;;;;;4993521;28;20077;-62
2023/04/05 11:54:34;;;;;;;;;;;8.70;48.30;;;;;;4993675;28;19986;-61
2023/04/05 11:57:00;;;;;;;;;;;8.90;47.70;;;;;;4994034;28;19982;-62
2023/04/05 11:59:29;;;;;;;;;;;8.90;48.00;;;;;;4995710;28;19978;-61
2023/04/05 12:01:58;;;;;;;;;;;9.10;46.80;;;;;;4995196;28;19983;-62
2023/04/05 12:04:24;;;;;;;;;;;9.00;45.70;;;;;;4992040;28;20005;-63
2023/04/05 12:07:07;;;;;;;;;;;8.60;47.40;;;;;;4982198;28;20343;-62
2023/04/05 12:09:36;;;;;;;;;;;8.50;47.50;;;;;;4993558;28;19994;-62
2023/04/05 12:12:01;;;;;;;;;;;8.60;48.70;;;;;;4990724;28;20026;-61
2023/04/05 12:14:27;;;;;;;;;;;8.70;48.70;;;;;;4988688;28;19982;-63
2023/04/05 12:16:58;;;;;;;;;;;8.50;48.80;;;;;;4992334;28;19982;-63
2023/04/05 12:19:29;;;;;;;;;;;8.50;48.20;;;;;;4988458;28;19994;-63
2023/04/05 12:21:55;;;;;;;;;;;8.60;48.50;;;;;;4983818;28;20299;-64
2023/04/05 12:24:20;;;;;;;;;;;8.40;48.50;;;;;;4993198;28;19979;-63
2023/04/05 12:26:46;;;;;;;;;;;8.40;47.70;;;;;;4991075;28;19990;-62
2023/04/05 12:29:11;;;;;;;;;;;8.40;48.60;;;;;;4990839;28;20121;-64
2023/04/05 12:31:41;;;;;;;;;;;8.30;47.40;;;;;;4984580;28;19987;-62
2023/04/05 12:34:11;;;;;;;;;;;8.40;48.20;;;;;;4981516;28;19994;-62
2023/04/05 12:36:40;;;;;;;;;;;8.40;48.70;;;;;;4980514;28;19985;-62
2023/04/05 12:39:06;;;;;;;;;;;8.50;49.10;;;;;;4981794;28;20361;-64
2023/04/05 12:41:32;;;;;;;;;;;8.60;50.80;;;;;;4985407;28;19993;-64
2023/04/05 12:44:03;;;;;;;;;;;8.80;50.30;;;;;;4985264;28;19983;-62
2023/04/05 12:46:42;;;;;;;;;;;8.80;50.60;;;;;;4975531;28;20341;-61
2023/04/05 12:49:11;;;;;;;;;;;8.90;50.40;;;;;;4975014;28;20046;-61
2023/04/05 12:51:40;;;;;;;;;;;8.90;50.50;;;;;;4975135;28;20129;-65
2023/04/05 12:54:06;;;;;;;;;;;8.80;50.20;;;;;;4977141;28;19987;-61
2023/04/05 12:56:32;;;;;;;;;;;8.70;47.80;;;;;;4975335;28;20049;-64
2023/04/05 12:58:57;;;;;;;;;;;8.70;49.90;;;;;;4973238;28;20061;-62
2023/04/05 13:01:23;;;;;;;;;;;8.70;50.00;;;;;;4972242;28;19986;-64
2023/04/05 13:03:50;;;;;;;;;;;8.70;49.10;;;;;;4972213;28;20442;-62
2023/04/05 13:06:15;;;;;;;;;;;8.60;49.80;;;;;;4971780;28;19978;-65
2023/04/05 13:08:41;;;;;;;;;;;8.50;48.50;;;;;;4971976;28;20408;-62
2023/04/05 13:11:08;;;;;;;;;;;8.60;48.50;;;;;;4972757;28;19999;-61
2023/04/05 13:13:33;;;;;;;;;;;8.70;48.50;;;;;;4972644;28;20394;-62
2023/04/05 13:15:59;;;;;;;;;;;8.80;48.20;;;;;;4973071;28;20077;-63
2023/04/05 13:18:25;;;;;;;;;;;8.80;47.80;;;;;;4973560;28;20428;-61
2023/04/05 13:20:50;;;;;;;;;;;8.80;49.40;;;;;;4974664;28;19983;-64
2023/04/05 13:23:16;;;;;;;;;;;8.80;48.60;;;;;;4975255;28;20630;-62
2023/04/05 13:25:44;;;;;;;;;;;8.80;47.70;;;;;;4976355;28;20085;-63
2023/04/05 13:28:09;;;;;;;;;;;8.80;48.40;;;;;;4976461;28;20007;-62
2023/04/05 13:30:35;;;;;;;;;;;8.80;47.90;;;;;;4975998;28;19983;-62
2023/04/05 13:33:03;;;;;;;;;;;8.80;46.00;;;;;;4975269;28;19990;-61
2023/04/05 13:35:28;;;;;;;;;;;8.80;45.60;;;;;;4976108;28;19979;-64
2023/04/05 13:37:54;;;;;;;;;;;8.80;47.20;;;;;;4976076;28;20389;-63
2023/04/05 13:40:20;;;;;;;;;;;8.90;47.20;;;;;;4975961;28;19983;-63
2023/04/05 13:42:47;;;;;;;;;;;9.10;47.10;;;;;;4976029;28;19986;-63
2023/04/05 13:45:13;;;;;;;;;;;9.00;48.40;;;;;;4975877;28;20506;-64
2023/04/05 13:47:39;;;;;;;;;;;9.10;48.80;;;;;;4975740;28;20094;-63
2023/04/05 13:50:05;;;;;;;;;;;9.00;50.10;;;;;;4975887;28;20346;-64
2023/04/05 13:52:30;;;;;;;;;;;9.00;48.90;;;;;;4975847;28;20030;-61
2023/04/05 13:54:56;;;;;;;;;;;9.00;47.00;;;;;;4975748;28;20026;-64
2023/04/05 13:57:21;;;;;;;;;;;8.90;48.60;;;;;;4975602;28;20062;-62
2023/04/05 13:59:47;;;;;;;;;;;8.80;47.50;;;;;;4975763;28;20429;-62
2023/04/05 14:02:13;;;;;;;;;;;8.90;47.00;;;;;;4975629;28;20386;-61
2023/04/05 14:04:40;;;;;;;;;;;9.10;45.70;;;;;;4975824;28;20005;-64
2023/04/05 14:07:05;;;;;;;;;;;9.20;46.80;;;;;;4975616;28;19983;-62
2023/04/05 14:09:32;;;;;;;;;;;9.30;46.20;;;;;;4975496;28;20050;-65
2023/04/05 14:11:57;;;;;;;;;;;9.20;48.30;;;;;;4975198;28;20055;-61
2023/04/05 14:14:23;;;;;;;;;;;9.20;45.20;;;;;;4975555;28;20437;-63
2023/04/05 14:16:49;;;;;;;;;;;9.10;45.50;;;;;;4975454;28;20453;-62
2023/04/05 14:19:15;;;;;;;;;;;9.10;45.40;;;;;;4975333;28;20357;-62
2023/04/05 14:21:41;;;;;;;;;;;9.20;46.30;;;;;;4975416;28;20349;-61
2023/04/05 14:24:06;;;;;;;;;;;9.40;45.60;;;;;;4975580;28;20533;-61
2023/04/05 14:26:32;;;;;;;;;;;9.40;46.00;;;;;;4975058;28;20354;-62
2023/04/05 14:28:58;;;;;;;;;;;9.40;45.40;;;;;;4975086;28;20089;-61
2023/04/05 14:31:26;;;;;;;;;;;9.30;46.30;;;;;;4975233;28;19979;-61
2023/04/05 14:33:51;;;;;;;;;;;9.10;46.80;;;;;;4975093;28;20433;-64